createdAt,value
2022-09-02T00:01:02.429Z,12.98
2022-09-02T00:03:37.294Z,12.94
2022-09-02T00:06:09.738Z,12.93
2022-09-02T00:08:42.731Z,12.93
2022-09-02T00:11:18.696Z,12.92
2022-09-02T00:13:52.504Z,12.91
2022-09-02T00:16:25.241Z,12.90
2022-09-02T00:18:58.014Z,12.91
2022-09-02T00:21:30.711Z,12.91
2022-09-02T00:24:02.913Z,12.92
2022-09-02T00:26:34.883Z,12.94
2022-09-02T00:29:07.193Z,12.93
2022-09-02T00:31:39.573Z,12.92
2022-09-02T00:34:12.755Z,12.92
2022-09-02T00:36:44.795Z,12.91
2022-09-02T00:39:17.765Z,12.89
2022-09-02T00:41:49.842Z,12.86
2022-09-02T00:44:22.566Z,12.81
2022-09-02T00:46:54.487Z,12.77
2022-09-02T00:49:30.008Z,12.73
2022-09-02T00:52:07.377Z,12.68
2022-09-02T00:54:46.729Z,12.65
2022-09-02T00:57:23.576Z,12.61
2022-09-02T01:00:02.009Z,12.56
2022-09-02T01:02:34.339Z,12.54
2022-09-02T01:05:10.971Z,12.53
2022-09-02T01:07:45.093Z,12.53
2022-09-02T01:10:20.313Z,12.54
2022-09-02T01:12:55.849Z,12.57
2022-09-02T01:15:30.294Z,12.57
2022-09-02T01:18:02.743Z,12.58
2022-09-02T01:20:35.407Z,12.57
2022-09-02T01:23:07.876Z,12.57
2022-09-02T01:25:40.167Z,12.58
2022-09-02T01:28:15.326Z,12.61
2022-09-02T01:30:49.971Z,12.63
2022-09-02T01:33:25.403Z,12.66
2022-09-02T01:35:58.501Z,12.69
2022-09-02T01:38:30.892Z,12.72
2022-09-02T01:41:02.806Z,12.74
2022-09-02T01:43:34.765Z,12.74
2022-09-02T01:46:07.051Z,12.73
2022-09-02T01:48:39.393Z,12.71
2022-09-02T01:51:16.816Z,12.70
2022-09-02T01:53:50.408Z,12.69
2022-09-02T01:56:22.681Z,12.69
2022-09-02T01:58:56.513Z,12.69
2022-09-02T02:01:28.467Z,12.66
2022-09-02T02:04:02.498Z,12.65
2022-09-02T02:06:34.542Z,12.61
2022-09-02T02:09:07.093Z,12.57
2022-09-02T02:11:39.651Z,12.54
2022-09-02T02:14:12.801Z,12.54
2022-09-02T02:16:51.913Z,12.53
2022-09-02T02:19:23.825Z,12.54
2022-09-02T02:21:55.932Z,12.55
2022-09-02T02:24:28.044Z,12.53
2022-09-02T02:27:00.084Z,12.52
2022-09-02T02:29:32.700Z,12.52
2022-09-02T02:32:05.146Z,12.51
2022-09-02T02:34:38.118Z,12.47
2022-09-02T02:37:12.362Z,12.41
2022-09-02T02:39:45.618Z,12.33
2022-09-02T02:42:18.017Z,12.24
2022-09-02T02:44:49.925Z,12.18
2022-09-02T02:47:22.464Z,12.09
2022-09-02T02:49:54.699Z,12.02
2022-09-02T02:52:27.254Z,11.94
2022-09-02T02:54:59.247Z,11.87
2022-09-02T02:57:31.309Z,11.84
2022-09-02T03:00:08.715Z,11.80
2022-09-02T03:02:41.036Z,11.75
2022-09-02T03:05:15.193Z,11.70
2022-09-02T03:07:47.435Z,11.64
2022-09-02T03:10:20.680Z,11.62
2022-09-02T03:12:52.688Z,11.62
2022-09-02T03:15:25.170Z,11.59
2022-09-02T03:17:59.420Z,11.58
2022-09-02T03:20:31.581Z,11.56
2022-09-02T03:23:05.954Z,11.54
2022-09-02T03:25:38.762Z,11.51
2022-09-02T03:28:18.008Z,11.47
2022-09-02T03:30:50.657Z,11.44
2022-09-02T03:33:23.173Z,11.42
2022-09-02T03:35:55.253Z,11.39
2022-09-02T03:38:27.562Z,11.39
2022-09-02T03:41:00.359Z,11.39
2022-09-02T03:43:32.509Z,11.39
2022-09-02T03:46:05.455Z,11.41
2022-09-02T03:48:37.883Z,11.41
2022-09-02T03:51:10.523Z,11.41
2022-09-02T03:53:42.503Z,11.42
2022-09-02T03:56:16.118Z,11.42
2022-09-02T03:58:50.243Z,11.41
2022-09-02T04:01:29.051Z,11.40
2022-09-02T04:04:07.743Z,11.40
2022-09-02T04:06:41.379Z,11.39
2022-09-02T04:09:13.306Z,11.36
2022-09-02T04:11:45.620Z,11.35
2022-09-02T04:14:17.948Z,11.35
2022-09-02T04:16:50.016Z,11.36
2022-09-02T04:19:22.153Z,11.36
2022-09-02T04:21:54.442Z,11.41
2022-09-02T04:24:26.712Z,11.62
2022-09-02T04:27:03.862Z,12.04
2022-09-02T04:29:37.147Z,12.59
2022-09-02T04:32:09.358Z,13.17
2022-09-02T04:34:43.181Z,13.81
2022-09-02T04:37:15.318Z,14.51
2022-09-02T04:39:47.379Z,15.30
2022-09-02T04:42:19.918Z,16.15
2022-09-02T04:44:53.824Z,16.95
2022-09-02T04:47:27.853Z,17.76
2022-09-02T04:50:00.245Z,18.54
2022-09-02T04:52:32.315Z,19.25
2022-09-02T04:55:07.117Z,19.88
2022-09-02T04:57:39.487Z,20.43
2022-09-02T05:00:13.520Z,20.89
2022-09-02T05:02:45.466Z,21.35
2022-09-02T05:05:18.225Z,21.75
2022-09-02T05:07:50.401Z,22.15
2022-09-02T05:10:22.642Z,22.66
2022-09-02T05:12:55.261Z,23.25
2022-09-02T05:15:27.878Z,23.90
2022-09-02T05:18:00.750Z,24.60
2022-09-02T05:20:39.587Z,25.34
2022-09-02T05:23:11.803Z,26.11
2022-09-02T05:25:45.131Z,26.77
2022-09-02T05:28:17.872Z,27.42
2022-09-02T05:30:49.944Z,28.03
2022-09-02T05:33:22.939Z,28.58
2022-09-02T05:35:54.997Z,28.91
2022-09-02T05:38:28.004Z,29.24
2022-09-02T05:41:00.773Z,29.45
2022-09-02T05:43:32.972Z,29.55
2022-09-02T05:46:09.551Z,29.62
2022-09-02T05:49:00.017Z,29.89
2022-09-02T05:51:33.714Z,30.34
2022-09-02T05:54:06.483Z,30.73
2022-09-02T05:56:41.110Z,31.23
2022-09-02T05:59:18.320Z,31.86
2022-09-02T06:01:51.722Z,32.41
2022-09-02T06:04:26.034Z,33.21
2022-09-02T06:06:58.202Z,33.90
2022-09-02T06:09:30.718Z,34.41
2022-09-02T06:12:03.296Z,34.93
2022-09-02T06:14:38.087Z,35.40
2022-09-02T06:17:11.148Z,35.88
2022-09-02T06:19:52.743Z,36.32
2022-09-02T06:22:27.287Z,36.73
2022-09-02T06:24:59.842Z,36.88
2022-09-02T06:27:32.009Z,37.01
2022-09-02T06:30:06.317Z,37.05
2022-09-02T06:32:39.459Z,37.17
2022-09-02T06:35:14.836Z,37.43
2022-09-02T06:37:50.859Z,37.76
2022-09-02T06:40:24.224Z,38.14
2022-09-02T06:43:00.506Z,38.56
2022-09-02T06:45:42.058Z,38.68
2022-09-02T06:48:15.510Z,38.87
2022-09-02T06:50:48.775Z,39.14
2022-09-02T06:53:21.456Z,39.31
2022-09-02T06:55:53.626Z,39.59
2022-09-02T06:58:26.237Z,39.90
2022-09-02T07:00:58.665Z,40.12
2022-09-02T07:03:49.130Z,40.24
2022-09-02T07:06:22.746Z,40.26
2022-09-02T07:08:55.323Z,40.37
2022-09-02T07:11:28.113Z,40.31
2022-09-02T07:14:01.876Z,40.02
2022-09-02T07:16:36.821Z,39.66
2022-09-02T07:19:14.091Z,39.54
2022-09-02T07:21:47.939Z,39.41
2022-09-02T07:24:20.772Z,39.05
2022-09-02T07:26:55.438Z,38.91
2022-09-02T07:29:29.075Z,38.88
2022-09-02T07:32:02.341Z,38.68
2022-09-02T07:34:34.601Z,38.67
2022-09-02T07:37:10.613Z,38.59
2022-09-02T07:39:44.099Z,38.54
2022-09-02T07:42:17.141Z,38.40
2022-09-02T07:44:51.196Z,38.36
2022-09-02T07:47:23.220Z,38.45
2022-09-02T07:52:50.669Z,38.82
2022-09-02T07:55:23.546Z,38.84
2022-09-02T07:57:56.107Z,38.87
2022-09-02T08:00:29.025Z,38.88
2022-09-02T08:03:05.812Z,38.85
2022-09-02T08:05:45.026Z,38.81
2022-09-02T08:08:20.263Z,38.75
2022-09-02T08:10:54.307Z,38.70
2022-09-02T08:13:27.061Z,38.36
2022-09-02T08:16:00.123Z,38.33
2022-09-02T08:18:32.352Z,38.24
2022-09-02T08:21:05.115Z,38.11
2022-09-02T08:23:37.833Z,37.66
2022-09-02T08:26:11.356Z,37.36
2022-09-02T08:28:43.416Z,37.58
2022-09-02T08:31:15.472Z,37.72
2022-09-02T08:33:47.658Z,37.62
2022-09-02T08:36:21.189Z,37.53
2022-09-02T08:38:53.116Z,37.43
2022-09-02T08:41:27.270Z,37.47
2022-09-02T08:44:02.442Z,37.46
2022-09-02T08:46:36.080Z,37.28
2022-09-02T08:49:16.104Z,37.10
2022-09-02T08:51:53.428Z,36.98
2022-09-02T08:54:31.715Z,36.94
2022-09-02T08:57:03.630Z,36.80
2022-09-02T08:59:36.814Z,36.50
2022-09-02T09:02:21.722Z,36.34
2022-09-02T09:05:06.808Z,36.56
2022-09-02T09:07:47.975Z,36.67
2022-09-02T09:10:26.683Z,36.71
2022-09-02T09:13:08.898Z,36.57
2022-09-02T09:15:51.188Z,36.55
2022-09-02T09:18:30.548Z,36.54
2022-09-02T09:21:03.389Z,36.38
2022-09-02T09:23:39.055Z,36.08
2022-09-02T09:26:13.694Z,35.95
2022-09-02T09:28:48.215Z,35.94
2022-09-02T09:31:25.255Z,36.06
2022-09-02T09:34:02.389Z,36.11
2022-09-02T09:36:51.646Z,35.95
2022-09-02T09:39:30.117Z,35.69
2022-09-02T09:42:04.027Z,35.34
2022-09-02T09:44:48.242Z,35.26
2022-09-02T09:47:23.057Z,35.03
2022-09-02T09:50:10.791Z,34.79
2022-09-02T09:52:44.417Z,34.77
2022-09-02T09:55:24.862Z,34.79
2022-09-02T09:58:11.197Z,34.84
2022-09-02T10:00:44.222Z,34.96
2022-09-02T10:03:26.663Z,35.00
2022-09-02T10:06:22.634Z,34.97
2022-09-02T10:08:57.311Z,34.95
2022-09-02T10:11:31.720Z,34.96
2022-09-02T10:14:05.282Z,34.87
2022-09-02T10:16:54.779Z,34.79
2022-09-02T10:19:36.240Z,34.72
2022-09-02T10:22:37.919Z,34.60
2022-09-02T10:25:35.060Z,34.44
2022-09-02T10:28:17.552Z,34.13
2022-09-02T10:30:57.051Z,34.13
2022-09-02T10:33:37.584Z,33.97
2022-09-02T10:36:23.315Z,33.61
2022-09-02T10:39:03.713Z,33.43
2022-09-02T10:44:31.451Z,33.04
2022-09-02T10:47:06.851Z,32.83
2022-09-02T10:49:55.338Z,32.53
2022-09-02T10:52:42.653Z,32.12
2022-09-02T10:55:23.234Z,31.42
2022-09-02T10:58:01.314Z,31.03
2022-09-02T11:00:36.412Z,30.70
2022-09-02T11:03:14.611Z,30.10
2022-09-02T11:05:52.962Z,29.63
2022-09-02T11:08:37.682Z,29.44
2022-09-02T11:11:14.888Z,29.18
2022-09-02T11:13:59.874Z,28.95
2022-09-02T11:19:16.275Z,28.80
2022-09-02T11:21:58.166Z,28.91
2022-09-02T11:24:36.240Z,28.93
2022-09-02T11:27:32.266Z,28.91
2022-09-02T11:30:06.956Z,28.87
2022-09-02T11:32:44.134Z,28.73
2022-09-02T11:35:21.723Z,28.67
2022-09-02T11:37:58.242Z,28.70
2022-09-02T11:40:38.869Z,28.78
2022-09-02T11:43:33.194Z,28.91
2022-09-02T11:46:46.446Z,29.05
2022-09-02T11:49:44.071Z,29.10
2022-09-02T11:52:29.698Z,28.75
2022-09-02T11:55:12.388Z,28.05
2022-09-02T11:57:44.932Z,27.61
2022-09-02T12:00:31.653Z,27.24
2022-09-02T12:03:42.952Z,26.91
2022-09-02T12:06:20.531Z,26.75
2022-09-02T12:09:12.408Z,26.80
2022-09-02T12:11:53.241Z,26.93
2022-09-02T12:15:11.651Z,26.99
2022-09-02T12:18:17.369Z,27.13
2022-09-02T12:21:16.357Z,27.21
2022-09-02T12:24:13.234Z,27.17
2022-09-02T12:27:08.154Z,27.01
2022-09-02T12:29:40.286Z,26.91
2022-09-02T12:32:12.491Z,26.80
2022-09-02T12:34:57.919Z,26.78
2022-09-02T12:37:54.382Z,26.65
2022-09-02T12:40:52.244Z,26.62
2022-09-02T12:43:31.147Z,26.65
2022-09-02T12:46:12.561Z,26.71
2022-09-02T12:48:53.057Z,26.75
2022-09-02T12:51:56.552Z,26.72
2022-09-02T12:54:37.881Z,26.76
2022-09-02T12:57:11.626Z,26.75
2022-09-02T12:59:45.080Z,26.65
2022-09-02T13:02:45.846Z,26.46
2022-09-02T13:05:26.759Z,26.17
2022-09-02T13:08:34.425Z,26.13
2022-09-02T13:11:46.417Z,26.15
2022-09-02T13:14:43.913Z,26.07
2022-09-02T13:17:37.088Z,25.99
2022-09-02T13:20:55.177Z,26.08
2022-09-02T13:24:14.071Z,26.20
2022-09-02T13:27:03.609Z,26.17
2022-09-02T13:30:02.226Z,26.10
2022-09-02T13:32:35.186Z,26.02
2022-09-02T13:35:11.768Z,25.92
2022-09-02T13:37:43.539Z,25.88
2022-09-02T13:40:24.805Z,25.74
2022-09-02T13:42:58.798Z,25.62
2022-09-02T13:45:34.053Z,25.47
2022-09-02T13:48:12.204Z,25.40
2022-09-02T13:50:47.979Z,25.38
2022-09-02T13:53:59.101Z,25.29
2022-09-02T13:56:30.663Z,25.08
2022-09-02T13:59:02.521Z,24.92
2022-09-02T14:01:38.273Z,24.82
2022-09-02T14:04:16.248Z,24.75
2022-09-02T14:06:50.812Z,24.66
2022-09-02T14:09:27.285Z,24.53
2022-09-02T14:12:00.517Z,24.38
2022-09-02T14:14:32.855Z,24.29
2022-09-02T14:17:25.262Z,24.19
2022-09-02T14:20:11.976Z,24.08
2022-09-02T14:22:44.853Z,23.92
2022-09-02T14:25:18.144Z,23.74
2022-09-02T14:27:54.230Z,23.61
2022-09-02T14:30:34.838Z,23.51
2022-09-02T14:33:28.555Z,23.37
2022-09-02T14:36:05.785Z,23.24
2022-09-02T14:38:50.818Z,23.15
2022-09-02T14:41:28.600Z,23.09
2022-09-02T14:44:09.271Z,23.03
2022-09-02T14:46:45.802Z,22.95
2022-09-02T14:49:24.559Z,22.88
2022-09-02T14:51:59.093Z,22.83
2022-09-02T14:54:43.141Z,22.79
2022-09-02T14:57:28.084Z,22.72
2022-09-02T15:00:01.691Z,22.67
2022-09-02T15:02:36.928Z,22.62
2022-09-02T15:05:14.503Z,22.61
2022-09-02T15:07:46.665Z,22.64
2022-09-02T15:10:18.551Z,22.69
2022-09-02T15:12:54.909Z,22.71
2022-09-02T15:15:27.781Z,22.71
2022-09-02T15:18:00.310Z,22.70
2022-09-02T15:20:32.318Z,22.71
2022-09-02T15:23:04.342Z,22.74
2022-09-02T15:25:36.478Z,22.73
2022-09-02T15:28:08.414Z,22.75
2022-09-02T15:30:40.782Z,22.78
2022-09-02T15:33:14.724Z,22.78
2022-09-02T15:35:50.023Z,22.71
2022-09-02T15:38:22.437Z,22.65
2022-09-02T15:40:54.472Z,22.54
2022-09-02T15:43:27.052Z,22.40
2022-09-02T15:45:58.950Z,22.31
2022-09-02T15:48:33.479Z,22.28
2022-09-02T15:51:13.833Z,22.24
2022-09-02T15:53:46.190Z,22.14
2022-09-02T15:56:24.137Z,22.03
2022-09-02T15:59:00.082Z,21.94
2022-09-02T16:01:33.764Z,21.86
2022-09-02T16:04:06.928Z,21.79
2022-09-02T16:06:41.321Z,21.72
2022-09-02T16:09:15.208Z,21.64
2022-09-02T16:11:51.542Z,21.60
2022-09-02T16:14:24.779Z,21.53
2022-09-02T16:16:58.254Z,21.44
2022-09-02T16:19:30.638Z,21.35
2022-09-02T16:22:03.137Z,21.27
2022-09-02T16:24:37.598Z,21.20
2022-09-02T16:27:10.099Z,21.15
2022-09-02T16:29:42.369Z,21.09
2022-09-02T16:32:26.753Z,21.03
2022-09-02T16:34:59.814Z,20.96
2022-09-02T16:37:31.724Z,20.92
2022-09-02T16:40:04.747Z,20.88
2022-09-02T16:42:38.419Z,20.83
2022-09-02T16:45:14.202Z,20.79
2022-09-02T16:47:46.152Z,20.74
2022-09-02T16:50:18.450Z,20.71
2022-09-02T16:52:50.555Z,20.69
2022-09-02T16:55:22.348Z,20.66
2022-09-02T16:57:54.288Z,20.63
2022-09-02T17:00:26.621Z,20.59
2022-09-02T17:02:58.690Z,20.56
2022-09-02T17:05:31.033Z,20.49
2022-09-02T17:08:03.294Z,20.44
2022-09-02T17:10:36.056Z,20.37
2022-09-02T17:13:07.942Z,20.28
2022-09-02T17:15:40.533Z,20.20
2022-09-02T17:18:12.597Z,20.12
2022-09-02T17:20:44.561Z,20.04
2022-09-02T17:23:17.031Z,19.97
2022-09-02T17:25:49.472Z,19.88
2022-09-02T17:28:21.546Z,19.79
2022-09-02T17:30:53.651Z,19.72
2022-09-02T17:33:25.779Z,19.64
2022-09-02T17:36:01.745Z,19.56
2022-09-02T17:38:33.582Z,19.47
2022-09-02T17:41:23.297Z,19.36
2022-09-02T17:43:55.704Z,19.23
2022-09-02T17:46:27.893Z,19.12
2022-09-02T17:49:16.311Z,19.01
2022-09-02T17:51:50.376Z,18.91
2022-09-02T17:54:23.529Z,18.81
2022-09-02T17:57:09.752Z,18.73
2022-09-02T17:59:53.455Z,18.64
2022-09-02T18:02:50.943Z,18.55
2022-09-02T18:05:32.531Z,18.45
2022-09-02T18:08:10.482Z,18.38
2022-09-02T18:10:52.846Z,18.31
2022-09-02T18:13:35.312Z,18.23
2022-09-02T18:16:20.901Z,18.16
2022-09-02T18:19:04.554Z,18.10
2022-09-02T18:21:49.401Z,18.04
2022-09-02T18:24:36.194Z,17.98
2022-09-02T18:27:17.833Z,17.90
2022-09-02T18:30:01.229Z,17.84
2022-09-02T18:32:48.515Z,17.77
2022-09-02T18:35:32.905Z,17.71
2022-09-02T18:38:16.876Z,17.65
2022-09-02T18:40:54.726Z,17.57
2022-09-02T18:43:34.903Z,17.51
2022-09-02T18:46:08.857Z,17.48
2022-09-02T18:48:42.035Z,17.48
2022-09-02T18:51:24.481Z,17.48
2022-09-02T18:54:01.084Z,17.45
2022-09-02T18:56:38.966Z,17.40
2022-09-02T18:59:14.250Z,17.33
2022-09-02T19:01:50.977Z,17.27
2022-09-02T19:04:29.438Z,17.21
2022-09-02T19:07:16.362Z,17.16
2022-09-02T19:09:49.502Z,17.10
2022-09-02T19:12:22.012Z,17.06
2022-09-02T19:14:54.186Z,17.01
2022-09-02T19:17:26.249Z,16.97
2022-09-02T19:19:58.112Z,16.94
2022-09-02T19:22:30.701Z,16.90
2022-09-02T19:25:08.494Z,16.87
2022-09-02T19:27:43.238Z,16.82
2022-09-02T19:30:18.790Z,16.76
2022-09-02T19:32:53.028Z,16.71
2022-09-02T19:35:30.882Z,16.67
2022-09-02T19:38:03.707Z,16.65
2022-09-02T19:40:40.069Z,16.60
2022-09-02T19:43:13.031Z,16.56
2022-09-02T19:45:48.997Z,16.52
2022-09-02T19:48:21.725Z,16.48
2022-09-02T19:50:54.015Z,16.44
2022-09-02T19:53:30.396Z,16.39
2022-09-02T19:56:02.769Z,16.34
2022-09-02T19:58:34.905Z,16.29
2022-09-02T20:01:09.248Z,16.23
2022-09-02T20:03:41.314Z,16.17
2022-09-02T20:06:13.401Z,16.11
2022-09-02T20:08:45.977Z,16.04
2022-09-02T20:11:18.732Z,15.99
2022-09-02T20:13:50.956Z,15.95
2022-09-02T20:16:25.277Z,15.89
2022-09-02T20:18:57.882Z,15.85
2022-09-02T20:21:31.853Z,15.81
2022-09-02T20:24:08.247Z,15.78
2022-09-02T20:26:49.759Z,15.76
2022-09-02T20:29:32.547Z,15.73
2022-09-02T20:32:14.054Z,15.69
2022-09-02T20:35:03.837Z,15.64
2022-09-02T20:37:50.691Z,15.60
2022-09-02T20:40:34.933Z,15.55
2022-09-02T20:43:36.409Z,15.49
2022-09-02T20:46:22.280Z,15.45
2022-09-02T20:49:12.211Z,15.42
2022-09-02T20:51:55.000Z,15.43
2022-09-02T20:54:39.350Z,15.45
2022-09-02T20:57:23.556Z,15.42
2022-09-02T21:00:07.305Z,15.39
2022-09-02T21:02:46.369Z,15.37
2022-09-02T21:05:22.811Z,15.34
2022-09-02T21:08:02.780Z,15.31
2022-09-02T21:10:39.322Z,15.27
2022-09-02T21:13:16.490Z,15.23
2022-09-02T21:15:54.955Z,15.20
2022-09-02T21:18:34.436Z,15.18
2022-09-02T21:21:12.674Z,15.16
2022-09-02T21:23:49.050Z,15.10
2022-09-02T21:26:26.113Z,15.06
2022-09-02T21:29:06.063Z,15.02
2022-09-02T21:31:43.425Z,15.01
2022-09-02T21:34:22.583Z,15.00
2022-09-02T21:36:57.043Z,14.96
2022-09-02T21:39:32.674Z,14.92
2022-09-02T21:42:16.423Z,14.88
2022-09-02T21:45:05.064Z,14.82
2022-09-02T21:47:47.320Z,14.77
2022-09-02T21:50:29.796Z,14.75
2022-09-02T21:53:16.859Z,14.70
2022-09-02T21:55:59.355Z,14.63
2022-09-02T21:58:48.384Z,14.57
2022-09-02T22:01:35.523Z,14.52
2022-09-02T22:04:24.427Z,14.49
2022-09-02T22:07:01.142Z,14.48
2022-09-02T22:09:34.229Z,14.46
2022-09-02T22:12:11.188Z,14.43
2022-09-02T22:14:50.730Z,14.38
2022-09-02T22:17:33.721Z,14.32
2022-09-02T22:20:09.828Z,14.27
2022-09-02T22:22:47.171Z,14.23
2022-09-02T22:25:23.430Z,14.18
2022-09-02T22:28:04.732Z,14.13
2022-09-02T22:30:40.817Z,14.10
2022-09-02T22:33:17.764Z,14.06
2022-09-02T22:35:52.537Z,14.03
2022-09-02T22:38:30.405Z,13.97
2022-09-02T22:41:07.390Z,13.93
2022-09-02T22:43:42.029Z,13.88
2022-09-02T22:46:40.133Z,13.83
2022-09-02T22:49:29.151Z,13.81
2022-09-02T22:52:31.220Z,13.77
2022-09-02T22:55:03.479Z,13.74
2022-09-02T22:57:45.947Z,13.72
2022-09-02T23:00:20.715Z,13.68
2022-09-02T23:03:06.727Z,13.65
2022-09-02T23:05:56.470Z,13.61
2022-09-02T23:08:28.329Z,13.56
2022-09-02T23:11:06.731Z,13.52
2022-09-02T23:13:53.384Z,13.50
2022-09-02T23:16:35.295Z,13.49
2022-09-02T23:19:17.339Z,13.45
2022-09-02T23:22:01.167Z,13.41
2022-09-02T23:24:45.375Z,13.36
2022-09-02T23:27:27.047Z,13.32
2022-09-02T23:29:59.117Z,13.26
2022-09-02T23:32:46.528Z,13.22
2022-09-02T23:35:24.286Z,13.18
2022-09-02T23:38:18.483Z,13.15
2022-09-02T23:40:58.353Z,13.15
2022-09-02T23:43:30.780Z,13.15
2022-09-02T23:46:15.892Z,13.12
2022-09-02T23:48:56.477Z,13.10
2022-09-02T23:51:36.700Z,13.07
2022-09-02T23:54:25.695Z,13.02
2022-09-02T23:57:09.642Z,13.00
